createdAt,value
2022-12-23T00:02:52.724Z,7.00
2022-12-23T00:05:55.850Z,6.70
2022-12-23T00:08:59.434Z,7.00
2022-12-23T00:12:20.023Z,6.70
2022-12-23T00:15:23.041Z,6.60
2022-12-23T00:18:27.991Z,6.70
2022-12-23T00:21:30.970Z,6.80
2022-12-23T00:24:33.864Z,6.70
2022-12-23T00:27:37.832Z,6.60
2022-12-23T00:30:47.712Z,6.60
2022-12-23T00:33:54.258Z,6.70
2022-12-23T00:36:57.298Z,6.60
2022-12-23T00:40:17.754Z,6.60
2022-12-23T00:43:20.668Z,6.70
2022-12-23T00:46:23.776Z,6.60
2022-12-23T00:49:42.405Z,6.70
2022-12-23T00:52:45.355Z,6.90
2022-12-23T00:55:48.856Z,6.60
2022-12-23T00:58:51.832Z,6.70
2022-12-23T01:02:12.709Z,6.70
2022-12-23T01:08:51.884Z,6.60
2022-12-23T01:11:55.233Z,6.50
2022-12-23T01:14:58.165Z,6.70
2022-12-23T01:18:01.069Z,6.90
2022-12-23T01:21:05.054Z,6.70
2022-12-23T01:24:09.943Z,6.80
2022-12-23T01:27:12.965Z,6.70
2022-12-23T01:30:16.153Z,6.90
2022-12-23T01:33:19.134Z,6.60
2022-12-23T01:36:22.927Z,6.80
2022-12-23T01:39:27.195Z,6.90
2022-12-23T01:42:45.176Z,6.80
2022-12-23T01:45:48.252Z,6.80
2022-12-23T01:48:53.759Z,6.80
2022-12-23T01:51:56.642Z,6.80
2022-12-23T01:55:01.065Z,7.00
2022-12-23T01:58:10.122Z,6.90
2022-12-23T02:01:30.974Z,6.80
2022-12-23T02:04:33.973Z,6.80
2022-12-23T02:07:55.351Z,6.90
2022-12-23T02:11:22.014Z,6.80
2022-12-23T02:14:56.470Z,6.70
2022-12-23T02:18:11.935Z,6.60
2022-12-23T02:21:27.086Z,6.80
2022-12-23T02:25:03.432Z,6.60
2022-12-23T02:28:31.661Z,6.70
2022-12-23T02:31:44.823Z,6.70
2022-12-23T02:34:54.910Z,6.90
2022-12-23T02:38:05.403Z,6.60
2022-12-23T02:41:16.598Z,6.70
2022-12-23T02:44:29.287Z,6.70
2022-12-23T02:47:38.786Z,6.90
2022-12-23T02:50:45.478Z,6.70
2022-12-23T02:53:52.187Z,6.90
2022-12-23T02:56:56.879Z,6.90
2022-12-23T03:00:01.326Z,6.90
2022-12-23T03:03:05.938Z,6.70
2022-12-23T03:06:20.580Z,6.90
2022-12-23T03:09:31.831Z,7.00
2022-12-23T03:12:44.293Z,6.80
2022-12-23T03:15:58.269Z,6.70
2022-12-23T03:19:11.565Z,6.90
2022-12-23T03:22:21.558Z,6.90
2022-12-23T03:25:28.201Z,6.70
2022-12-23T03:28:36.672Z,6.70
2022-12-23T03:31:41.866Z,6.90
2022-12-23T03:34:51.066Z,6.70
2022-12-23T03:37:57.216Z,7.00
2022-12-23T03:41:06.053Z,6.80
2022-12-23T03:44:11.668Z,6.80
2022-12-23T03:47:18.074Z,6.80
2022-12-23T03:50:24.579Z,6.80
2022-12-23T03:53:31.559Z,6.90
2022-12-23T03:56:39.650Z,6.90
2022-12-23T03:59:46.586Z,7.00
2022-12-23T04:02:58.608Z,7.00
2022-12-23T04:06:05.945Z,6.90
2022-12-23T04:09:10.128Z,6.80
2022-12-23T04:12:14.900Z,6.90
2022-12-23T04:15:22.102Z,6.90
2022-12-23T04:18:25.143Z,6.90
2022-12-23T04:21:29.476Z,6.70
2022-12-23T04:24:32.568Z,7.10
2022-12-23T04:27:35.530Z,6.90
2022-12-23T04:30:38.492Z,6.90
2022-12-23T04:33:41.454Z,7.00
2022-12-23T04:36:45.774Z,6.90
2022-12-23T04:39:48.758Z,7.10
2022-12-23T04:42:51.725Z,6.90
2022-12-23T04:45:54.754Z,6.80
2022-12-23T04:48:57.669Z,6.90
2022-12-23T04:52:02.146Z,6.90
2022-12-23T04:55:05.435Z,6.90
2022-12-23T04:58:08.461Z,6.80
2022-12-23T05:01:12.729Z,6.90
2022-12-23T05:04:15.891Z,6.80
2022-12-23T05:07:20.274Z,7.00
2022-12-23T05:10:23.169Z,6.90
2022-12-23T05:13:26.482Z,6.80
2022-12-23T05:16:29.457Z,6.90
2022-12-23T05:19:32.459Z,6.90
2022-12-23T05:22:36.898Z,6.80
2022-12-23T05:25:40.550Z,6.90
2022-12-23T05:28:45.534Z,6.90
2022-12-23T05:31:48.594Z,6.90
2022-12-23T05:34:51.600Z,7.00
2022-12-23T05:37:57.617Z,6.90
2022-12-23T05:41:00.693Z,7.20
2022-12-23T05:44:03.605Z,6.90
2022-12-23T05:47:06.877Z,7.20
2022-12-23T05:50:10.851Z,7.00
2022-12-23T05:53:15.130Z,6.90
2022-12-23T05:56:18.119Z,7.00
2022-12-23T05:59:21.196Z,7.00
2022-12-23T06:02:24.511Z,7.00
2022-12-23T06:05:27.531Z,6.90
2022-12-23T06:08:31.929Z,7.00
2022-12-23T06:11:35.014Z,6.90
2022-12-23T06:14:37.923Z,7.00
2022-12-23T06:17:40.907Z,7.00
2022-12-23T06:20:46.741Z,7.00
2022-12-23T06:23:51.011Z,7.00
2022-12-23T06:26:57.335Z,7.10
2022-12-23T06:30:00.513Z,7.00
2022-12-23T06:33:03.517Z,7.00
2022-12-23T06:36:07.759Z,7.10
2022-12-23T06:39:12.884Z,7.00
2022-12-23T06:42:15.825Z,7.10
2022-12-23T06:45:18.914Z,7.10
2022-12-23T06:48:21.830Z,7.20
2022-12-23T06:51:24.795Z,7.30
2022-12-23T06:54:29.110Z,7.20
2022-12-23T06:57:32.075Z,7.10
2022-12-23T07:00:35.095Z,7.20
2022-12-23T07:03:38.283Z,7.20
2022-12-23T07:06:41.310Z,7.20
2022-12-23T07:09:45.607Z,7.20
2022-12-23T07:12:50.855Z,7.20
2022-12-23T07:15:54.417Z,7.10
2022-12-23T07:18:57.378Z,7.20
2022-12-23T07:22:00.269Z,7.30
2022-12-23T07:25:04.665Z,7.30
2022-12-23T07:28:07.684Z,7.30
2022-12-23T07:31:10.614Z,7.40
2022-12-23T07:34:13.509Z,7.40
2022-12-23T07:37:16.453Z,7.70
2022-12-23T07:40:20.909Z,7.50
2022-12-23T07:43:23.855Z,7.50
2022-12-23T07:46:26.857Z,7.50
2022-12-23T07:49:29.814Z,7.50
2022-12-23T07:52:32.723Z,7.50
2022-12-23T07:55:37.297Z,7.50
2022-12-23T07:58:40.338Z,7.60
2022-12-23T08:01:43.361Z,7.80
2022-12-23T08:04:46.785Z,7.50
2022-12-23T08:07:50.420Z,7.50
2022-12-23T08:10:59.118Z,7.50
2022-12-23T08:14:02.028Z,7.50
2022-12-23T08:17:05.098Z,7.50
2022-12-23T08:20:09.327Z,7.50
2022-12-23T08:23:12.255Z,7.50
2022-12-23T08:26:18.338Z,7.40
2022-12-23T08:29:21.487Z,7.50
2022-12-23T08:32:27.305Z,7.50
2022-12-23T08:35:30.274Z,7.70
2022-12-23T08:38:33.846Z,7.60
2022-12-23T08:41:41.060Z,7.60
2022-12-23T08:44:44.051Z,7.60
2022-12-23T08:47:47.019Z,7.60
2022-12-23T08:50:50.033Z,7.60
2022-12-23T08:53:59.816Z,7.50
2022-12-23T08:57:05.218Z,7.50
2022-12-23T09:00:09.664Z,7.50
2022-12-23T09:03:12.665Z,7.50
2022-12-23T09:06:21.883Z,7.50
2022-12-23T09:09:27.797Z,7.50
2022-12-23T09:12:32.287Z,7.70
2022-12-23T09:15:38.696Z,7.50
2022-12-23T09:18:42.730Z,7.50
2022-12-23T09:21:45.639Z,7.60
2022-12-23T09:24:48.623Z,7.50
2022-12-23T09:27:52.910Z,7.50
2022-12-23T09:30:55.932Z,7.50
2022-12-23T09:33:58.974Z,7.60
2022-12-23T09:37:03.343Z,7.60
2022-12-23T09:40:07.371Z,7.60
2022-12-23T09:43:22.773Z,7.60
2022-12-23T09:46:28.714Z,7.60
2022-12-23T09:49:31.801Z,7.60
2022-12-23T09:52:43.908Z,7.70
2022-12-23T09:55:51.900Z,7.70
2022-12-23T09:59:04.245Z,7.80
2022-12-23T10:02:19.769Z,7.90
2022-12-23T10:05:29.965Z,7.90
2022-12-23T10:08:35.996Z,7.80
2022-12-23T10:11:42.377Z,7.80
2022-12-23T10:14:48.757Z,7.90
2022-12-23T10:17:55.833Z,7.90
2022-12-23T10:21:04.047Z,7.80
2022-12-23T10:24:14.171Z,7.80
2022-12-23T10:27:26.961Z,7.80
2022-12-23T10:30:57.348Z,7.80
2022-12-23T10:34:05.585Z,7.90
2022-12-23T10:37:17.771Z,7.90
2022-12-23T10:40:26.572Z,8.00
2022-12-23T10:43:39.094Z,8.00
2022-12-23T10:46:50.492Z,8.10
2022-12-23T10:50:05.935Z,8.10
2022-12-23T10:53:14.451Z,8.20
2022-12-23T10:56:18.303Z,8.30
2022-12-23T10:59:26.701Z,8.30
2022-12-23T11:02:45.317Z,8.40
2022-12-23T11:05:51.706Z,8.30
2022-12-23T11:08:57.473Z,8.40
2022-12-23T11:12:03.082Z,8.40
2022-12-23T11:15:07.358Z,8.50
2022-12-23T11:18:19.347Z,8.50
2022-12-23T11:21:22.213Z,8.50
2022-12-23T11:24:26.475Z,8.50
2022-12-23T11:27:29.389Z,8.50
2022-12-23T11:30:36.386Z,8.50
2022-12-23T11:33:46.614Z,8.40
2022-12-23T11:36:56.530Z,8.40
2022-12-23T11:40:04.799Z,8.30
2022-12-23T11:43:15.533Z,8.30
2022-12-23T11:46:27.136Z,8.30
2022-12-23T11:49:32.303Z,8.30
2022-12-23T11:52:35.348Z,8.30
2022-12-23T11:55:41.935Z,8.30
2022-12-23T11:58:49.271Z,8.20
2022-12-23T12:01:52.372Z,8.30
2022-12-23T12:05:01.491Z,8.30
2022-12-23T12:08:10.280Z,8.20
2022-12-23T12:11:16.572Z,8.20
2022-12-23T12:14:27.192Z,8.20
2022-12-23T12:17:37.461Z,8.20
2022-12-23T12:20:45.738Z,8.10
2022-12-23T12:24:08.202Z,8.10
2022-12-23T12:27:15.598Z,8.10
2022-12-23T12:30:21.103Z,8.10
2022-12-23T12:33:28.341Z,8.10
2022-12-23T12:36:40.473Z,8.20
2022-12-23T12:39:48.189Z,8.20
2022-12-23T12:42:57.859Z,8.20
2022-12-23T12:46:12.524Z,8.20
2022-12-23T12:49:23.511Z,8.30
2022-12-23T12:52:29.001Z,8.20
2022-12-23T12:55:36.256Z,8.20
2022-12-23T12:58:41.773Z,8.30
2022-12-23T13:01:53.914Z,8.30
2022-12-23T13:05:23.503Z,8.40
2022-12-23T13:08:59.995Z,8.50
2022-12-23T13:12:11.283Z,8.60
2022-12-23T13:15:23.681Z,8.60
2022-12-23T13:18:35.122Z,8.60
2022-12-23T13:21:44.319Z,8.60
2022-12-23T13:25:02.625Z,8.60
2022-12-23T13:28:21.546Z,8.50
2022-12-23T13:31:39.554Z,8.50
2022-12-23T13:34:50.396Z,8.40
2022-12-23T13:38:00.147Z,8.30
2022-12-23T13:41:17.391Z,8.20
2022-12-23T13:44:21.636Z,8.20
2022-12-23T13:47:30.907Z,8.10
2022-12-23T13:50:38.982Z,8.10
2022-12-23T13:54:00.682Z,8.10
2022-12-23T13:57:17.984Z,8.00
2022-12-23T14:00:27.039Z,8.00
2022-12-23T14:03:35.721Z,7.90
2022-12-23T14:06:45.848Z,7.90
2022-12-23T14:09:53.177Z,7.90
2022-12-23T14:13:04.853Z,7.90
2022-12-23T14:16:34.273Z,7.90
2022-12-23T14:19:57.632Z,7.90
2022-12-23T14:23:13.316Z,7.90
2022-12-23T14:26:36.318Z,7.90
2022-12-23T14:29:50.701Z,7.80
2022-12-23T14:32:58.163Z,7.80
2022-12-23T14:36:21.954Z,7.80
2022-12-23T14:39:33.026Z,7.80
2022-12-23T14:42:40.711Z,7.80
2022-12-23T14:45:45.879Z,7.80
2022-12-23T14:49:38.363Z,7.70
2022-12-23T14:52:59.953Z,7.70
2022-12-23T14:56:22.754Z,7.60
2022-12-23T14:59:36.009Z,7.60
2022-12-23T15:02:41.943Z,7.60
2022-12-23T15:05:45.045Z,7.60
2022-12-23T15:08:49.531Z,7.60
2022-12-23T15:11:53.564Z,7.60
2022-12-23T15:14:59.513Z,7.60
2022-12-23T15:18:06.308Z,7.60
2022-12-23T15:21:13.279Z,7.50
2022-12-23T15:24:18.552Z,7.50
2022-12-23T15:27:27.671Z,7.60
2022-12-23T15:30:34.958Z,7.40
2022-12-23T15:37:02.703Z,7.40
2022-12-23T15:40:13.465Z,7.40
2022-12-23T15:43:20.765Z,7.40
2022-12-23T15:46:29.755Z,7.40
2022-12-23T15:49:34.694Z,7.30
2022-12-23T15:52:40.919Z,7.30
2022-12-23T15:55:44.698Z,7.30
2022-12-23T15:58:48.318Z,7.30
2022-12-23T16:01:52.251Z,7.40
2022-12-23T16:05:00.345Z,7.50
2022-12-23T16:08:12.251Z,7.40
2022-12-23T16:11:17.771Z,7.40
2022-12-23T16:14:25.938Z,7.50
2022-12-23T16:17:34.019Z,7.40
2022-12-23T16:20:43.748Z,7.50
2022-12-23T16:23:51.685Z,7.60
2022-12-23T16:26:56.296Z,7.40
2022-12-23T16:30:02.848Z,7.50
2022-12-23T16:33:07.953Z,7.50
2022-12-23T16:36:21.424Z,7.50
2022-12-23T16:39:24.652Z,7.50
2022-12-23T16:42:27.589Z,7.50
2022-12-23T16:45:33.731Z,7.40
2022-12-23T16:48:40.174Z,7.50
2022-12-23T16:51:44.513Z,7.40
2022-12-23T16:54:47.474Z,7.40
2022-12-23T16:57:50.426Z,7.40
2022-12-23T17:00:54.134Z,7.40
2022-12-23T17:03:57.055Z,7.30
2022-12-23T17:07:01.632Z,7.40
2022-12-23T17:10:04.966Z,7.30
2022-12-23T17:13:08.113Z,7.60
2022-12-23T17:16:15.810Z,7.50
2022-12-23T17:19:27.185Z,7.30
2022-12-23T17:22:34.738Z,7.40
2022-12-23T17:25:37.727Z,7.40
2022-12-23T17:28:40.763Z,7.40
2022-12-23T17:31:45.745Z,7.40
2022-12-23T17:34:48.730Z,7.50
2022-12-23T17:37:53.351Z,7.40
2022-12-23T17:40:58.393Z,7.40
2022-12-23T17:44:01.824Z,7.30
2022-12-23T17:47:06.884Z,7.50
2022-12-23T17:50:10.861Z,7.30
2022-12-23T17:53:17.261Z,7.40
2022-12-23T17:56:22.706Z,7.30
2022-12-23T17:59:25.713Z,7.50
2022-12-23T18:02:32.798Z,7.30
2022-12-23T18:05:36.691Z,7.40
2022-12-23T18:08:41.178Z,7.50
2022-12-23T18:11:46.582Z,7.30
2022-12-23T18:14:49.603Z,7.40
2022-12-23T18:17:53.687Z,7.30
2022-12-23T18:20:58.344Z,7.30
2022-12-23T18:24:02.646Z,7.30
2022-12-23T18:27:11.971Z,7.30
2022-12-23T18:30:15.115Z,7.50
2022-12-23T18:33:18.175Z,7.40
2022-12-23T18:36:24.591Z,7.30
2022-12-23T18:39:28.936Z,7.30
2022-12-23T18:42:31.874Z,7.30
2022-12-23T18:45:36.921Z,7.50
2022-12-23T18:48:39.978Z,7.30
2022-12-23T18:51:42.926Z,7.30
2022-12-23T18:54:47.196Z,7.30
2022-12-23T18:57:50.988Z,7.20
2022-12-23T19:00:54.225Z,7.40
2022-12-23T19:03:57.189Z,7.20
2022-12-23T19:07:00.125Z,7.20
2022-12-23T19:10:06.157Z,7.20
2022-12-23T19:13:10.314Z,7.20
2022-12-23T19:16:15.114Z,7.20
2022-12-23T19:19:18.478Z,7.10
2022-12-23T19:22:21.397Z,7.20
2022-12-23T19:25:25.709Z,7.40
2022-12-23T19:28:28.649Z,7.20
2022-12-23T19:31:33.933Z,7.20
2022-12-23T19:34:37.080Z,7.20
2022-12-23T19:37:40.561Z,7.30
2022-12-23T19:40:44.853Z,7.40
2022-12-23T19:43:47.906Z,7.30
2022-12-23T19:46:51.005Z,7.30
2022-12-23T19:49:54.079Z,7.10
2022-12-23T19:52:57.455Z,7.30
2022-12-23T19:56:03.780Z,7.10
2022-12-23T19:59:06.703Z,7.30
2022-12-23T20:02:14.901Z,7.10
2022-12-23T20:05:18.254Z,7.10
2022-12-23T20:08:21.103Z,7.10
2022-12-23T20:11:26.709Z,7.10
2022-12-23T20:14:33.751Z,7.10
2022-12-23T20:17:39.067Z,7.10
2022-12-23T20:20:45.315Z,7.10
2022-12-23T20:23:48.253Z,7.00
2022-12-23T20:26:53.617Z,7.00
2022-12-23T20:29:56.503Z,7.20
2022-12-23T20:32:59.675Z,7.30
2022-12-23T20:36:02.705Z,6.90
2022-12-23T20:39:06.047Z,7.10
2022-12-23T20:42:10.383Z,7.00
2022-12-23T20:45:13.429Z,7.00
2022-12-23T20:48:18.062Z,7.30
2022-12-23T20:51:23.703Z,7.00
2022-12-23T20:54:32.753Z,7.00
2022-12-23T20:57:38.102Z,7.00
2022-12-23T21:00:40.984Z,6.80
2022-12-23T21:03:43.910Z,7.00
2022-12-23T21:06:46.845Z,6.90
2022-12-23T21:09:49.825Z,6.90
2022-12-23T21:12:54.094Z,7.00
2022-12-23T21:16:02.003Z,6.80
2022-12-23T21:19:05.792Z,6.90
2022-12-23T21:22:09.166Z,7.10
2022-12-23T21:25:12.206Z,6.90
2022-12-23T21:28:16.510Z,7.20
2022-12-23T21:31:22.868Z,7.20
2022-12-23T21:34:26.101Z,6.90
2022-12-23T21:37:29.010Z,7.20
2022-12-23T21:40:32.209Z,6.80
2022-12-23T21:43:36.493Z,6.90
2022-12-23T21:46:39.622Z,6.90
2022-12-23T21:49:44.181Z,7.00
2022-12-23T21:52:47.118Z,7.00
2022-12-23T21:55:50.079Z,6.80
2022-12-23T21:58:57.797Z,6.80
2022-12-23T22:02:00.899Z,6.80
2022-12-23T22:05:03.963Z,6.60
2022-12-23T22:08:07.060Z,6.80
2022-12-23T22:11:11.718Z,6.70
2022-12-23T22:14:18.271Z,6.50
2022-12-23T22:17:21.180Z,6.60
2022-12-23T22:20:24.113Z,6.70
2022-12-23T22:23:27.094Z,6.60
2022-12-23T22:26:32.447Z,6.90
2022-12-23T22:29:36.825Z,6.60
2022-12-23T22:32:42.542Z,6.60
2022-12-23T22:35:55.644Z,6.80
2022-12-23T22:38:59.984Z,6.80
2022-12-23T22:42:02.986Z,6.60
2022-12-23T22:45:09.207Z,6.80
2022-12-23T22:48:12.697Z,6.50
2022-12-23T22:51:19.234Z,6.60
2022-12-23T22:54:22.234Z,6.50
2022-12-23T22:57:25.169Z,6.60
2022-12-23T23:00:29.444Z,6.70
2022-12-23T23:03:32.785Z,6.60
2022-12-23T23:06:38.093Z,6.50
2022-12-23T23:09:41.367Z,6.70
2022-12-23T23:12:44.607Z,6.50
2022-12-23T23:15:49.908Z,6.50
2022-12-23T23:18:54.238Z,6.40
2022-12-23T23:21:57.173Z,6.50
2022-12-23T23:25:00.076Z,6.50
2022-12-23T23:28:03.071Z,6.80
2022-12-23T23:34:31.053Z,6.30
2022-12-23T23:37:34.001Z,6.70
2022-12-23T23:40:37.263Z,6.70
2022-12-23T23:43:40.240Z,6.50
2022-12-23T23:46:45.064Z,6.50
2022-12-23T23:49:47.937Z,6.70
2022-12-23T23:52:51.640Z,6.80
2022-12-23T23:56:00.982Z,6.60
2022-12-23T23:59:04.065Z,6.50
